Time;durP1;ratioP1;P1;durP2;ratioP2;P2;SDS_P1;SDS_P2;PMS_P1;PMS_P2;Temp;Humidity;BMP_temperature;BMP_pressure;BME280_temperature;BME280_humidity;BME280_pressure;Samples;Min_cycle;Max_cycle;Signal;HPM_P1;HPM_P2
2022/10/09 00:01:04;;;;;;;5.82;3.60;;;6.20;99.90;;;;;;5040585;28;20051;-84
2022/10/09 00:03:31;;;;;;;8.75;3.60;;;6.20;99.90;;;;;;5050594;28;20097;-84
2022/10/09 00:05:57;;;;;;;5.93;3.67;;;6.10;99.90;;;;;;5050211;28;20428;-83
2022/10/09 00:08:23;;;;;;;6.18;3.55;;;6.10;99.90;;;;;;5050691;28;20037;-84
2022/10/09 00:10:49;;;;;;;6.45;3.75;;;6.10;99.90;;;;;;5066708;28;20033;-84
2022/10/09 00:13:15;;;;;;;4.07;3.22;;;6.10;99.90;;;;;;5034432;28;20039;-84
2022/10/09 00:15:43;;;;;;;7.25;3.85;;;6.10;99.90;;;;;;5040540;28;20104;-84
2022/10/09 00:18:11;;;;;;;4.40;3.47;;;6.00;99.90;;;;;;5043302;28;20099;-84
2022/10/09 00:20:39;;;;;;;5.68;3.67;;;6.00;99.90;;;;;;5049073;28;20111;-84
2022/10/09 00:23:06;;;;;;;4.10;3.40;;;5.90;99.90;;;;;;5049906;28;20115;-84
2022/10/09 00:25:34;;;;;;;4.95;3.58;;;5.90;99.90;;;;;;5050178;28;20024;-84
2022/10/09 00:28:01;;;;;;;5.43;3.78;;;5.90;99.90;;;;;;5067269;28;20035;-83
2022/10/09 00:30:26;;;;;;;6.47;3.97;;;5.80;99.90;;;;;;5050292;28;20044;-83
2022/10/09 00:32:53;;;;;;;6.40;4.22;;;5.80;99.90;;;;;;5066847;28;20055;-84
2022/10/09 00:35:19;;;;;;;6.03;4.45;;;5.80;99.90;;;;;;5065038;28;20447;-84
2022/10/09 00:37:45;;;;;;;5.10;4.28;;;5.80;99.90;;;;;;5033821;28;20040;-84
2022/10/09 00:40:11;;;;;;;5.45;3.97;;;5.80;99.90;;;;;;5050090;28;20635;-84
2022/10/09 00:42:36;;;;;;;7.88;4.07;;;5.80;99.90;;;;;;5033464;28;20032;-83
2022/10/09 00:45:04;;;;;;;6.80;4.00;;;5.70;99.90;;;;;;5037026;28;20542;-83
2022/10/09 00:47:41;;;;;;;6.20;4.13;;;5.70;99.90;;;;;;5066579;28;20029;-84
2022/10/09 00:50:14;;;;;;;6.13;3.92;;;5.60;99.90;;;;;;5043824;28;20017;-83
2022/10/09 00:52:40;;;;;;;5.65;3.88;;;5.60;99.90;;;;;;5046499;28;20033;-84
2022/10/09 00:55:08;;;;;;;5.68;3.80;;;5.60;99.90;;;;;;5065881;28;20033;-83
2022/10/09 00:57:36;;;;;;;5.22;4.03;;;5.50;99.90;;;;;;5046137;28;20033;-83
2022/10/09 01:00:06;;;;;;;4.88;3.95;;;5.50;99.90;;;;;;5058840;28;20028;-83
2022/10/09 01:02:32;;;;;;;4.68;3.47;;;5.50;99.90;;;;;;5031783;28;20128;-83
2022/10/09 01:04:58;;;;;;;4.53;3.55;;;5.50;99.90;;;;;;5045765;28;20021;-83
2022/10/09 01:07:27;;;;;;;3.85;3.40;;;5.50;99.90;;;;;;5041859;28;20069;-84
2022/10/09 01:10:12;;;;;;;4.97;3.90;;;5.50;99.90;;;;;;5044506;28;20041;-84
2022/10/09 01:12:51;;;;;;;4.97;3.50;;;5.40;99.90;;;;;;5053541;28;20037;-84
2022/10/09 01:15:23;;;;;;;6.10;3.70;;;5.40;99.90;;;;;;5053258;28;20051;-83
2022/10/09 01:18:10;;;;;;;4.30;3.50;;;5.40;99.90;;;;;;5070655;28;20043;-84
2022/10/09 01:21:02;;;;;;;9.52;4.00;;;5.40;99.90;;;;;;5067642;28;20051;-83
2022/10/09 01:23:31;;;;;;;3.95;2.95;;;5.40;99.90;;;;;;5054857;28;20102;-84
2022/10/09 01:26:23;;;;;;;9.10;3.40;;;5.40;99.90;;;;;;5069933;28;20028;-84
2022/10/09 01:28:56;;;;;;;3.92;3.22;;;5.40;99.90;;;;;;5053911;28;20166;-83
2022/10/09 01:31:25;;;;;;;3.55;3.10;;;5.30;99.90;;;;;;5053242;28;20361;-84
2022/10/09 01:33:51;;;;;;;4.63;3.30;;;5.30;99.90;;;;;;5033775;28;20040;-84
2022/10/09 01:36:18;;;;;;;5.60;3.58;;;5.30;99.90;;;;;;5045461;28;20029;-84
2022/10/09 01:38:45;;;;;;;4.03;3.25;;;5.30;99.90;;;;;;5049292;28;20626;-84
2022/10/09 01:41:11;;;;;;;3.75;3.00;;;5.20;99.90;;;;;;5053132;28;20040;-84
2022/10/09 01:43:37;;;;;;;4.60;3.33;;;5.20;99.90;;;;;;5069551;28;20037;-83
2022/10/09 01:46:35;;;;;;;5.28;3.85;;;5.20;99.90;;;;;;5045637;28;20032;-84
2022/10/09 01:49:19;;;;;;;4.95;3.28;;;5.10;99.90;;;;;;5011339;28;20091;-84
2022/10/09 01:52:05;;;;;;;4.03;2.95;;;5.10;99.90;;;;;;5042748;28;20037;-83
2022/10/09 01:54:47;;;;;;;6.65;3.85;;;5.10;99.90;;;;;;5066374;28;20032;-83
2022/10/09 01:57:20;;;;;;;5.00;3.42;;;5.00;99.90;;;;;;5069924;28;20550;-84
2022/10/09 01:59:49;;;;;;;3.45;3.08;;;5.00;99.90;;;;;;5049011;28;20037;-84
2022/10/09 02:02:15;;;;;;;4.47;3.45;;;5.00;99.90;;;;;;5067525;28;20028;-84
2022/10/09 02:04:42;;;;;;;6.03;3.38;;;5.00;99.90;;;;;;5040982;28;20047;-83
2022/10/09 02:07:09;;;;;;;4.28;3.47;;;5.00;99.90;;;;;;5066289;28;20464;-84
2022/10/09 02:09:37;;;;;;;4.93;3.72;;;5.00;99.90;;;;;;5036679;28;20635;-84
2022/10/09 02:12:06;;;;;;;7.95;4.28;;;5.00;99.90;;;;;;5034601;28;20086;-84
2022/10/09 02:14:33;;;;;;;4.57;3.42;;;5.00;99.90;;;;;;5069422;28;20496;-84
2022/10/09 02:17:12;;;;;;;4.88;3.00;;;5.00;99.90;;;;;;5054042;28;20119;-83
2022/10/09 02:19:47;;;;;;;2.97;2.67;;;5.00;99.90;;;;;;5067119;28;20456;-84
2022/10/09 02:22:17;;;;;;;3.80;3.08;;;5.00;99.90;;;;;;5035615;28;20037;-84
2022/10/09 02:24:44;;;;;;;4.10;2.90;;;5.00;99.90;;;;;;5036317;28;20035;-84
2022/10/09 02:27:11;;;;;;;3.88;2.88;;;4.90;99.90;;;;;;5049838;28;20043;-84
2022/10/09 02:29:40;;;;;;;4.15;3.03;;;4.90;99.90;;;;;;5040568;28;20024;-84
2022/10/09 02:32:06;;;;;;;4.18;3.28;;;4.90;99.90;;;;;;5068438;28;20508;-84
2022/10/09 02:34:32;;;;;;;5.30;2.90;;;4.90;99.90;;;;;;5052546;28;20040;-84
2022/10/09 02:36:58;;;;;;;3.70;2.97;;;4.80;99.90;;;;;;5052133;28;20028;-84
2022/10/09 02:39:24;;;;;;;4.60;3.10;;;4.80;99.90;;;;;;5052615;28;20223;-84
2022/10/09 02:41:49;;;;;;;4.47;3.20;;;4.80;99.90;;;;;;5035093;28;20039;-84
2022/10/09 02:44:15;;;;;;;4.00;2.83;;;4.80;99.90;;;;;;5050623;28;20075;-85
2022/10/09 02:46:41;;;;;;;4.97;2.97;;;4.80;99.90;;;;;;5035274;28;20037;-85
2022/10/09 02:49:07;;;;;;;6.35;3.03;;;4.80;99.90;;;;;;5051784;28;20561;-84
2022/10/09 02:51:32;;;;;;;5.75;2.85;;;4.80;99.90;;;;;;5043689;28;20036;-84
2022/10/09 02:53:58;;;;;;;4.25;2.97;;;4.80;99.90;;;;;;5051784;28;20028;-84
2022/10/09 02:56:25;;;;;;;3.55;2.67;;;4.80;99.90;;;;;;5051871;28;20028;-84
2022/10/09 02:58:51;;;;;;;7.00;3.20;;;4.80;99.90;;;;;;5068874;28;20067;-84
2022/10/09 03:01:17;;;;;;;3.90;2.75;;;4.80;99.90;;;;;;5068600;28;20597;-84
2022/10/09 03:03:44;;;;;;;3.22;2.55;;;4.80;99.90;;;;;;5040785;28;20037;-84
2022/10/09 03:06:16;;;;;;;5.82;2.65;;;4.70;99.90;;;;;;5056868;28;20082;-84
2022/10/09 03:08:45;;;;;;;5.25;3.05;;;4.70;99.90;;;;;;5051954;28;20047;-84
2022/10/09 03:11:13;;;;;;;2.95;2.42;;;4.70;99.90;;;;;;5046424;28;20044;-84
2022/10/09 03:13:39;;;;;;;3.15;2.85;;;4.80;99.90;;;;;;5035417;28;20435;-85
2022/10/09 03:16:24;;;;;;;2.83;2.33;;;4.80;99.90;;;;;;5051504;28;20021;-85
2022/10/09 03:18:51;;;;;;;;;;;4.80;99.90;;;;;;5033137;28;20033;-85
2022/10/09 03:21:19;;;;;;;3.20;2.30;;;4.80;99.90;;;;;;5034766;28;19913;-84
2022/10/09 03:23:46;;;;;;;3.55;2.60;;;4.80;99.90;;;;;;5047878;28;20052;-84
2022/10/09 03:26:14;;;;;;;3.33;2.70;;;4.70;99.90;;;;;;5033769;28;20407;-85
2022/10/09 03:28:42;;;;;;;3.25;2.65;;;4.70;99.90;;;;;;5032257;28;20033;-84
2022/10/09 03:31:09;;;;;;;4.15;2.83;;;4.70;99.90;;;;;;5051226;28;20028;-85
2022/10/09 03:33:36;;;;;;;7.38;2.67;;;4.60;99.90;;;;;;5063702;28;20025;-84
2022/10/09 03:36:03;;;;;;;3.10;2.80;;;4.60;99.90;;;;;;5038460;28;20028;-84
2022/10/09 03:38:29;;;;;;;2.90;2.45;;;4.60;99.90;;;;;;5051948;28;20081;-85
2022/10/09 03:40:58;;;;;;;5.45;2.90;;;4.60;99.90;;;;;;5067487;28;20025;-85
2022/10/09 03:43:24;;;;;;;4.28;2.80;;;4.60;99.90;;;;;;5047622;28;20040;-84
2022/10/09 03:45:50;;;;;;;4.32;2.70;;;4.60;99.90;;;;;;5046566;28;20103;-84
2022/10/09 03:48:16;;;;;;;2.95;2.60;;;4.60;99.90;;;;;;5048147;28;20037;-84
2022/10/09 03:50:42;;;;;;;3.25;2.60;;;4.60;99.90;;;;;;5041709;28;20090;-85
2022/10/09 03:53:09;;;;;;;2.92;2.55;;;4.60;99.90;;;;;;5066337;28;20024;-84
2022/10/09 03:55:35;;;;;;;4.10;2.63;;;4.60;99.90;;;;;;5050572;28;20042;-85
2022/10/09 03:58:01;;;;;;;5.03;2.55;;;4.60;99.90;;;;;;5051355;28;20485;-84
2022/10/09 04:00:27;;;;;;;3.17;2.20;;;4.50;99.90;;;;;;5067441;28;20601;-85
2022/10/09 04:02:53;;;;;;;3.97;2.65;;;4.60;99.90;;;;;;5050728;28;20688;-84
2022/10/09 04:05:19;;;;;;;2.80;2.60;;;4.60;99.90;;;;;;5032237;28;20037;-84
2022/10/09 04:07:45;;;;;;;7.20;2.40;;;4.50;99.90;;;;;;5051249;28;20445;-85
2022/10/09 04:10:11;;;;;;;2.85;2.60;;;4.50;99.90;;;;;;5067193;28;20059;-84
2022/10/09 04:12:37;;;;;;;4.00;2.08;;;4.40;99.90;;;;;;5017771;28;20067;-85
2022/10/09 04:15:04;;;;;;;3.83;2.42;;;4.40;99.90;;;;;;5050064;28;20173;-84
2022/10/09 04:17:30;;;;;;;5.53;2.58;;;4.50;99.90;;;;;;5050508;28;20063;-85
2022/10/09 04:19:56;;;;;;;4.57;2.50;;;4.40;99.90;;;;;;5017464;28;20516;-84
2022/10/09 04:22:21;;;;;;;2.63;2.33;;;4.40;99.90;;;;;;5014409;28;20957;-85
2022/10/09 04:24:47;;;;;;;5.60;2.40;;;4.40;99.90;;;;;;5032988;28;20029;-85
2022/10/09 04:27:13;;;;;;;3.90;2.22;;;4.40;99.90;;;;;;5050904;28;20112;-84
2022/10/09 04:29:39;;;;;;;2.75;2.17;;;4.40;99.90;;;;;;5067458;28;20032;-85
2022/10/09 04:32:06;;;;;;;2.78;2.30;;;4.40;99.90;;;;;;5049943;28;20036;-85
2022/10/09 04:34:32;;;;;;;10.15;2.85;;;4.50;99.90;;;;;;5066008;28;20029;-85
2022/10/09 04:36:58;;;;;;;2.58;2.38;;;4.50;99.90;;;;;;5029622;28;20039;-83
2022/10/09 04:39:26;;;;;;;2.55;2.20;;;4.50;99.90;;;;;;5055073;28;20029;-84
2022/10/09 04:41:54;;;;;;;3.70;2.38;;;4.50;99.90;;;;;;5054615;28;20025;-85
2022/10/09 04:44:20;;;;;;;4.55;2.13;;;4.50;99.90;;;;;;5051444;28;20029;-85
2022/10/09 04:46:48;;;;;;;4.43;2.47;;;4.50;99.90;;;;;;5070622;28;20035;-84
2022/10/09 04:49:14;;;;;;;2.42;2.22;;;4.50;99.90;;;;;;5051207;28;20025;-85
2022/10/09 04:51:40;;;;;;;2.33;1.90;;;4.50;99.90;;;;;;5046968;28;20800;-85
2022/10/09 04:54:06;;;;;;;3.03;2.25;;;4.40;99.90;;;;;;5054103;28;20028;-85
2022/10/09 04:56:32;;;;;;;2.80;2.55;;;4.40;99.90;;;;;;5053765;28;20082;-85
2022/10/09 04:58:58;;;;;;;2.47;2.20;;;4.40;99.90;;;;;;5070962;28;20505;-85
2022/10/09 05:01:26;;;;;;;6.60;2.17;;;4.50;99.90;;;;;;5045828;28;20044;-84
2022/10/09 05:03:53;;;;;;;2.78;2.25;;;4.50;99.90;;;;;;5071283;28;20032;-85
2022/10/09 05:06:21;;;;;;;4.50;2.50;;;4.40;99.90;;;;;;5054500;28;20032;-84
2022/10/09 05:08:47;;;;;;;9.30;2.10;;;4.40;99.90;;;;;;5054039;28;20147;-85
2022/10/09 05:11:15;;;;;;;2.35;2.15;;;4.40;99.90;;;;;;5070977;28;20240;-85
2022/10/09 05:13:46;;;;;;;8.25;2.20;;;4.40;99.90;;;;;;5047851;28;20044;-85
2022/10/09 05:16:18;;;;;;;3.28;1.80;;;4.40;99.90;;;;;;5070221;28;20035;-85
2022/10/09 05:18:47;;;;;;;3.03;2.05;;;4.40;99.90;;;;;;5038058;28;20397;-85
2022/10/09 05:21:13;;;;;;;2.15;1.85;;;4.50;99.90;;;;;;5052091;28;20477;-85
2022/10/09 05:23:39;;;;;;;6.45;2.05;;;4.50;99.90;;;;;;5035224;28;20033;-85
2022/10/09 05:26:09;;;;;;;3.17;1.95;;;4.50;99.90;;;;;;5058622;28;20045;-85
2022/10/09 05:28:35;;;;;;;18.33;2.20;;;4.40;99.90;;;;;;5054256;28;20115;-85
2022/10/09 05:31:06;;;;;;;4.57;2.10;;;4.50;99.90;;;;;;5053764;28;20120;-85
2022/10/09 05:33:32;;;;;;;18.15;1.90;;;4.40;99.90;;;;;;5071310;28;20037;-85
2022/10/09 05:36:03;;;;;;;1.73;1.58;;;4.50;99.90;;;;;;5057151;28;20019;-85
2022/10/09 05:38:30;;;;;;;2.67;1.90;;;4.40;99.90;;;;;;5058773;28;20484;-85
2022/10/09 05:41:01;;;;;;;3.90;2.10;;;4.40;99.90;;;;;;5070603;28;20025;-84
2022/10/09 05:43:30;;;;;;;1.80;1.70;;;4.40;99.90;;;;;;5050854;28;20037;-85
2022/10/09 05:46:07;;;;;;;6.90;1.80;;;4.50;99.90;;;;;;5060867;28;20021;-85
2022/10/09 05:48:34;;;;;;;5.22;2.08;;;4.40;99.90;;;;;;5070335;28;20024;-84
2022/10/09 05:51:18;;;;;;;16.30;2.42;;;4.40;99.90;;;;;;5069768;28;20074;-85
2022/10/09 05:53:46;;;;;;;4.50;1.90;;;4.40;99.90;;;;;;5040122;28;20132;-84
2022/10/09 05:56:17;;;;;;;5.82;1.88;;;4.30;99.90;;;;;;5041473;28;20572;-85
2022/10/09 05:58:49;;;;;;;11.32;2.30;;;4.40;99.90;;;;;;5054267;28;20124;-85
2022/10/09 06:01:15;;;;;;;1.70;1.60;;;4.30;99.90;;;;;;5053235;28;20541;-85
2022/10/09 06:03:41;;;;;;;7.72;1.70;;;4.30;99.90;;;;;;5070093;28;20040;-84
2022/10/09 06:06:10;;;;;;;1.70;1.60;;;4.40;99.90;;;;;;5053461;28;20143;-85
2022/10/09 06:08:37;;;;;;;1.73;1.63;;;4.30;99.90;;;;;;5067217;28;20029;-85
2022/10/09 06:11:09;;;;;;;5.45;1.65;;;4.40;99.90;;;;;;5053097;28;20573;-85
2022/10/09 06:13:34;;;;;;;2.55;1.50;;;4.40;99.90;;;;;;5069652;28;20021;-84
2022/10/09 06:16:00;;;;;;;5.32;1.80;;;4.40;99.90;;;;;;5052704;28;20087;-85
2022/10/09 06:18:26;;;;;;;3.65;1.60;;;4.40;99.90;;;;;;5053405;28;20131;-85
2022/10/09 06:20:54;;;;;;;3.88;1.88;;;4.40;99.90;;;;;;5052628;28;20048;-85
2022/10/09 06:23:20;;;;;;;3.10;2.03;;;4.50;99.90;;;;;;5069800;28;20025;-84
2022/10/09 06:25:51;;;;;;;3.53;2.08;;;4.50;99.90;;;;;;5052536;28;20028;-85
2022/10/09 06:28:17;;;;;;;15.80;2.13;;;4.60;99.90;;;;;;5040009;28;20032;-85
2022/10/09 06:30:43;;;;;;;1.90;1.80;;;4.60;99.90;;;;;;5021154;28;20025;-85
2022/10/09 06:33:08;;;;;;;41.28;3.17;;;4.70;99.90;;;;;;5049405;28;20453;-85
2022/10/09 06:35:34;;;;;;;4.25;1.92;;;4.70;99.90;;;;;;5038353;28;20036;-85
2022/10/09 06:38:00;;;;;;;11.60;2.10;;;4.80;99.90;;;;;;5054336;28;20074;-85
2022/10/09 06:40:26;;;;;;;5.00;1.98;;;4.80;99.90;;;;;;5046962;28;20459;-84
2022/10/09 06:42:51;;;;;;;16.40;2.15;;;4.80;99.90;;;;;;5020444;28;20029;-84
2022/10/09 06:45:17;;;;;;;5.47;1.92;;;4.90;99.90;;;;;;5053708;28;20036;-85
2022/10/09 06:47:43;;;;;;;1.65;1.55;;;4.90;99.90;;;;;;5053635;28;20056;-86
2022/10/09 06:50:09;;;;;;;52.13;3.45;;;5.00;99.90;;;;;;5045796;28;20497;-85
2022/10/09 06:52:34;;;;;;;20.00;2.80;;;5.00;99.90;;;;;;5019191;28;20037;-84
2022/10/09 06:55:00;;;;;;;3.25;1.90;;;5.10;99.90;;;;;;5031707;28;20040;-84
2022/10/09 06:57:26;;;;;;;11.90;2.60;;;5.20;99.90;;;;;;5049035;28;20029;-85
2022/10/09 06:59:52;;;;;;;9.65;4.03;;;5.30;99.90;;;;;;5033717;28;20086;-85
2022/10/09 07:02:17;;;;;;;11.68;6.38;;;5.30;99.90;;;;;;5047804;28;20128;-84
2022/10/09 07:04:43;;;;;;;2.55;2.20;;;5.40;99.90;;;;;;5045888;28;20033;-84
2022/10/09 07:07:09;;;;;;;1.70;1.55;;;5.50;99.90;;;;;;5066782;28;20028;-84
2022/10/09 07:09:35;;;;;;;1.90;1.70;;;5.60;99.90;;;;;;5053003;28;20029;-84
2022/10/09 07:12:01;;;;;;;1.70;1.60;;;5.80;99.90;;;;;;5049663;28;20060;-84
2022/10/09 07:14:28;;;;;;;1.60;1.50;;;6.00;99.90;;;;;;5018885;28;20090;-85
2022/10/09 07:16:54;;;;;;;8.73;1.80;;;6.10;99.90;;;;;;5069487;28;20030;-84
2022/10/09 07:19:20;;;;;;;2.25;1.58;;;6.30;99.90;;;;;;5052054;28;20127;-84
2022/10/09 07:21:48;;;;;;;1.55;1.45;;;6.20;99.90;;;;;;5044847;28;20075;-84
2022/10/09 07:24:15;;;;;;;4.03;2.25;;;6.20;99.90;;;;;;5063582;28;20033;-85
2022/10/09 07:26:43;;;;;;;1.30;1.20;;;6.30;99.90;;;;;;5047112;28;20093;-84
2022/10/09 07:29:12;;;;;;;4.05;1.42;;;6.30;99.90;;;;;;5034029;28;20033;-85
2022/10/09 07:31:37;;;;;;;1.70;1.60;;;6.30;99.90;;;;;;5050002;28;20020;-84
2022/10/09 07:34:05;;;;;;;3.88;2.15;;;6.30;99.90;;;;;;5043999;28;20028;-85
2022/10/09 07:36:31;;;;;;;4.97;1.75;;;6.40;99.90;;;;;;5063534;28;20037;-84
2022/10/09 07:38:58;;;;;;;1.70;1.60;;;6.50;99.90;;;;;;5069805;28;20024;-84
2022/10/09 07:41:25;;;;;;;1.30;1.20;;;6.50;99.90;;;;;;5051462;28;20393;-84
2022/10/09 07:43:52;;;;;;;3.55;1.40;;;6.70;99.90;;;;;;5052056;28;20036;-84
2022/10/09 07:46:19;;;;;;;3.28;1.58;;;6.80;99.90;;;;;;5049677;28;20493;-84
2022/10/09 07:48:45;;;;;;;1.50;1.40;;;6.80;99.90;;;;;;5034411;28;20029;-84
2022/10/09 07:51:19;;;;;;;1.48;1.38;;;6.80;99.90;;;;;;5042757;28;20033;-84
2022/10/09 07:53:45;;;;;;;1.95;1.75;;;6.90;99.90;;;;;;5064913;28;20025;-84
2022/10/09 07:56:16;;;;;;;2.45;1.30;;;7.10;99.90;;;;;;5058994;28;20028;-85
2022/10/09 07:58:42;;;;;;;2.75;1.58;;;7.30;99.90;;;;;;5050085;28;20119;-84
2022/10/09 08:01:09;;;;;;;1.67;1.40;;;7.50;99.90;;;;;;5048195;28;20035;-84
2022/10/09 08:03:36;;;;;;;1.35;1.25;;;7.80;99.90;;;;;;5049117;28;20140;-84
2022/10/09 08:06:02;;;;;;;1.15;1.13;;;8.00;99.90;;;;;;5046196;28;20115;-84
2022/10/09 08:08:27;;;;;;;2.50;1.90;;;8.20;99.90;;;;;;5065694;28;20104;-84
2022/10/09 08:10:53;;;;;;;2.50;2.30;;;8.30;99.90;;;;;;5057751;28;22021;-85
2022/10/09 08:13:19;;;;;;;4.35;3.17;;;8.50;99.90;;;;;;5058682;28;20056;-85
2022/10/09 08:15:45;;;;;;;4.95;2.13;;;8.60;99.90;;;;;;5037405;28;20033;-85
2022/10/09 08:18:11;;;;;;;3.50;2.70;;;8.80;99.90;;;;;;5051921;28;20036;-85
2022/10/09 08:20:38;;;;;;;2.45;2.13;;;8.90;99.90;;;;;;5042391;28;20529;-85
2022/10/09 08:23:04;;;;;;;6.65;4.68;;;8.90;99.90;;;;;;5058744;28;20032;-84
2022/10/09 08:25:35;;;;;;;5.88;4.43;;;9.00;99.90;;;;;;5046301;28;20028;-84
2022/10/09 08:28:01;;;;;;;5.65;4.25;;;9.10;99.90;;;;;;5055973;28;20029;-84
2022/10/09 08:30:27;;;;;;;5.68;4.00;;;9.20;99.90;;;;;;5037933;28;20397;-84
2022/10/09 08:32:53;;;;;;;6.75;4.60;;;9.30;99.90;;;;;;5017354;28;20044;-84
2022/10/09 08:35:18;;;;;;;8.07;5.15;;;9.30;99.90;;;;;;5041796;28;20036;-84
2022/10/09 08:37:44;;;;;;;6.05;3.85;;;9.40;99.90;;;;;;5052238;28;20021;-84
2022/10/09 08:40:17;;;;;;;5.80;4.03;;;9.50;99.90;;;;;;5049735;28;20024;-84
2022/10/09 08:42:59;;;;;;;4.40;3.58;;;9.60;99.90;;;;;;5046967;28;20029;-83
2022/10/09 08:45:25;;;;;;;7.40;4.00;;;9.60;99.90;;;;;;5052091;28;20079;-84
2022/10/09 08:48:00;;;;;;;4.55;3.30;;;9.70;99.90;;;;;;5031346;28;20033;-84
2022/10/09 08:50:31;;;;;;;;;;;9.70;99.90;;;;;;5056971;28;20055;-84
2022/10/09 08:53:07;;;;;;;5.78;3.10;;;9.70;99.90;;;;;;5029259;28;20312;-84
2022/10/09 08:55:48;;;;;;;4.93;2.92;;;9.80;99.90;;;;;;5054470;28;20051;-85
2022/10/09 08:58:17;;;;;;;4.28;2.53;;;9.90;99.90;;;;;;5059495;28;20055;-84
2022/10/09 09:00:46;;;;;;;4.40;3.17;;;9.90;99.90;;;;;;5046971;28;20115;-85
2022/10/09 09:03:36;;;;;;;3.83;3.30;;;9.90;99.90;;;;;;5044348;28;20043;-84
2022/10/09 09:06:06;;;;;;;3.67;2.97;;;10.00;99.90;;;;;;5044016;28;20029;-83
2022/10/09 09:09:07;;;;;;;6.65;3.53;;;10.10;99.90;;;;;;5055301;28;20017;-83
2022/10/09 09:11:51;;;;;;;4.75;3.70;;;10.20;99.90;;;;;;5041134;28;20060;-84
2022/10/09 09:14:17;;;;;;;4.60;3.63;;;10.30;99.90;;;;;;5061038;28;20029;-84
2022/10/09 09:16:48;;;;;;;7.03;4.15;;;10.50;99.90;;;;;;5049812;28;20025;-83
2022/10/09 09:19:25;;;;;;;6.63;3.55;;;10.60;99.90;;;;;;5060979;28;20054;-85
2022/10/09 09:21:53;;;;;;;6.40;3.97;;;10.70;99.90;;;;;;5070229;28;20039;-84
2022/10/09 09:24:21;;;;;;;7.90;3.78;;;10.70;99.90;;;;;;5038216;28;20120;-83
2022/10/09 09:26:54;;;;;;;4.95;3.33;;;10.80;99.90;;;;;;5046116;28;20032;-84
2022/10/09 09:29:22;;;;;;;4.88;3.60;;;10.90;99.90;;;;;;5030406;28;20107;-85
2022/10/09 09:31:53;;;;;;;3.28;2.97;;;11.10;99.90;;;;;;5031092;28;20645;-84
2022/10/09 09:34:39;;;;;;;6.88;3.05;;;11.20;99.90;;;;;;5066102;28;20488;-84
2022/10/09 09:37:04;;;;;;;;;;;11.30;99.90;;;;;;5041311;28;20556;-84
2022/10/09 09:39:31;;;;;;;;;;;11.30;99.90;;;;;;5055619;28;19912;-84
2022/10/09 09:42:19;;;;;;;6.00;2.78;;;11.40;99.90;;;;;;5059374;28;20372;-84
2022/10/09 09:44:53;;;;;;;6.38;3.15;;;11.50;99.90;;;;;;5048608;28;20755;-84
2022/10/09 09:47:28;;;;;;;6.35;3.00;;;11.60;99.90;;;;;;5045029;28;20075;-84
2022/10/09 09:49:59;;;;;;;4.78;2.50;;;11.70;99.90;;;;;;5058553;28;20059;-84
2022/10/09 09:52:29;;;;;;;5.07;2.30;;;11.80;99.90;;;;;;5065812;28;20493;-84
2022/10/09 09:54:57;;;;;;;5.22;2.33;;;11.90;99.90;;;;;;5043395;28;20021;-84
2022/10/09 09:57:43;;;;;;;4.60;2.80;;;11.90;99.90;;;;;;5040807;28;20044;-84
2022/10/09 10:00:22;;;;;;;3.45;2.55;;;12.00;99.90;;;;;;5041214;28;20060;-85
2022/10/09 10:02:48;;;;;;;6.28;2.58;;;12.00;99.90;;;;;;5054914;28;20028;-85
2022/10/09 10:05:21;;;;;;;4.85;2.30;;;12.00;99.90;;;;;;5046377;28;20025;-85
2022/10/09 10:07:50;;;;;;;4.22;2.40;;;12.10;99.90;;;;;;5044762;28;20025;-85
2022/10/09 10:10:20;;;;;;;3.22;1.55;;;12.20;99.90;;;;;;5056448;28;20021;-86
2022/10/09 10:12:52;;;;;;;2.85;1.30;;;12.40;99.90;;;;;;5047784;28;20043;-85
2022/10/09 10:15:22;;;;;;;4.97;1.10;;;12.50;99.90;;;;;;5058259;28;20109;-86
2022/10/09 10:17:54;;;;;;;1.15;0.82;;;12.60;99.90;;;;;;5058694;28;20029;-85
2022/10/09 10:20:20;;;;;;;2.72;0.88;;;12.70;99.90;;;;;;5060295;28;20183;-84
2022/10/09 10:22:52;;;;;;;2.67;0.90;;;12.80;99.90;;;;;;5024802;28;20036;-84
2022/10/09 10:25:22;;;;;;;3.78;1.00;;;12.80;99.90;;;;;;5049941;28;20029;-85
2022/10/09 10:27:53;;;;;;;3.97;1.05;;;12.90;99.90;;;;;;5058017;28;20050;-84
2022/10/09 10:30:19;;;;;;;3.53;1.00;;;13.00;99.90;;;;;;5041715;28;20581;-84
2022/10/09 10:33:00;;;;;;;3.42;0.82;;;13.00;99.90;;;;;;5046669;28;20128;-84
2022/10/09 10:35:35;;;;;;;2.22;0.80;;;13.10;99.90;;;;;;5056519;28;20029;-85
2022/10/09 10:38:48;;;;;;;2.00;1.10;;;13.20;99.90;;;;;;5064841;28;20028;-85
2022/10/09 10:41:26;;;;;;;2.80;0.95;;;13.20;99.90;;;;;;5039963;28;20128;-85
2022/10/09 10:44:20;;;;;;;2.78;1.67;;;13.30;99.90;;;;;;5041704;28;20024;-84
2022/10/09 10:46:59;;;;;;;2.80;1.33;;;13.40;99.90;;;;;;5066037;28;20032;-84
2022/10/09 10:49:25;;;;;;;2.20;1.35;;;13.40;99.90;;;;;;5050707;28;20089;-83
2022/10/09 10:52:19;;;;;;;1.23;1.05;;;13.40;99.90;;;;;;5050790;28;20515;-84
2022/10/09 10:55:17;;;;;;;7.68;1.30;;;13.40;99.90;;;;;;5068021;28;20031;-84
2022/10/09 10:57:57;;;;;;;8.00;1.63;;;13.40;99.90;;;;;;5048499;28;20653;-84
2022/10/09 11:00:25;;;;;;;5.13;1.95;;;13.50;99.90;;;;;;5066328;28;20031;-84
2022/10/09 11:02:54;;;;;;;4.88;1.27;;;13.50;99.90;;;;;;5048452;28;20048;-84
2022/10/09 11:05:24;;;;;;;1.50;0.98;;;13.50;99.90;;;;;;5062672;28;20431;-84
2022/10/09 11:07:56;;;;;;;2.38;0.90;;;13.50;99.90;;;;;;5066035;28;20024;-84
2022/10/09 11:10:27;;;;;;;4.93;0.90;;;13.50;99.90;;;;;;5067994;28;20041;-85
2022/10/09 11:12:59;;;;;;;1.48;0.95;;;13.60;99.90;;;;;;5051262;28;20033;-85
2022/10/09 11:15:40;;;;;;;2.90;1.02;;;13.60;99.90;;;;;;5051355;28;20067;-84
2022/10/09 11:18:21;;;;;;;3.13;1.15;;;13.70;99.90;;;;;;5051879;28;20081;-84
2022/10/09 11:21:14;;;;;;;3.38;0.80;;;13.70;99.90;;;;;;5062793;28;20517;-85
2022/10/09 11:23:43;;;;;;;2.00;0.90;;;13.80;99.90;;;;;;5046379;28;20120;-86
2022/10/09 11:26:34;;;;;;;1.95;1.00;;;13.80;99.90;;;;;;5056173;28;20028;-85
2022/10/09 11:29:01;;;;;;;3.15;0.90;;;13.90;99.90;;;;;;5065061;28;20040;-83
2022/10/09 11:31:34;;;;;;;3.45;0.82;;;13.90;99.90;;;;;;5058946;28;20408;-83
2022/10/09 11:34:11;;;;;;;1.60;0.80;;;13.90;99.90;;;;;;5067933;28;20083;-82
2022/10/09 11:36:41;;;;;;;1.52;0.88;;;13.90;99.90;;;;;;5051098;28;20032;-83
2022/10/09 11:39:22;;;;;;;2.00;1.17;;;13.90;99.90;;;;;;5051537;28;20032;-82
2022/10/09 11:41:51;;;;;;;2.28;0.82;;;13.90;99.90;;;;;;5078179;28;20433;-82
2022/10/09 11:44:48;;;;;;;2.30;0.90;;;14.00;99.90;;;;;;5051934;28;20120;-84
2022/10/09 11:47:17;;;;;;;3.15;0.88;;;14.00;99.90;;;;;;5064989;28;20056;-83
2022/10/09 11:50:08;;;;;;;4.10;1.58;;;14.00;99.90;;;;;;5051098;28;20064;-83
2022/10/09 11:52:34;;;;;;;3.13;0.80;;;14.00;99.90;;;;;;5047488;28;20647;-84
2022/10/09 11:55:27;;;;;;;2.47;1.42;;;14.00;99.90;;;;;;5046911;28;20025;-85
2022/10/09 11:57:53;;;;;;;2.75;1.00;;;14.00;99.90;;;;;;5033853;28;20453;-85
2022/10/09 12:00:35;;;;;;;2.70;1.15;;;14.00;99.90;;;;;;5043545;28;20373;-85
2022/10/09 12:03:04;;;;;;;2.45;1.25;;;14.00;99.90;;;;;;5067794;28;20040;-84
2022/10/09 12:05:39;;;;;;;5.53;1.65;;;14.00;99.90;;;;;;5050828;28;20040;-86
2022/10/09 12:08:26;;;;;;;2.10;0.82;;;13.90;99.90;;;;;;5050640;28;20037;-84
2022/10/09 12:10:54;;;;;;;4.30;1.15;;;14.00;99.90;;;;;;5050130;28;20032;-85
2022/10/09 12:13:38;;;;;;;1.23;0.93;;;14.10;99.90;;;;;;5050759;28;20644;-86
2022/10/09 12:16:07;;;;;;;1.27;0.98;;;14.10;99.90;;;;;;5044577;28;20053;-84
2022/10/09 12:18:44;;;;;;;2.72;1.20;;;14.20;99.90;;;;;;5034525;28;20059;-85
2022/10/09 12:21:46;;;;;;;0.88;0.75;;;14.20;99.90;;;;;;5067186;28;20070;-84
2022/10/09 12:24:34;;;;;;;4.10;1.00;;;14.30;99.90;;;;;;5045420;28;20068;-85
2022/10/09 12:27:02;;;;;;;2.67;1.08;;;14.30;99.90;;;;;;5067459;28;20121;-82
2022/10/09 12:29:43;;;;;;;2.22;0.82;;;14.40;99.90;;;;;;5067364;28;20037;-82
2022/10/09 12:32:17;;;;;;;3.33;0.90;;;14.30;99.90;;;;;;5068042;28;20103;-83
2022/10/09 12:34:47;;;;;;;2.55;1.10;;;14.40;99.90;;;;;;5067004;28;20033;-83
2022/10/09 12:37:29;;;;;;;5.00;1.33;;;14.40;99.90;;;;;;5032270;28;20043;-83
2022/10/09 12:40:06;;;;;;;3.15;0.90;;;14.50;99.90;;;;;;5066838;28;20115;-84
2022/10/09 12:42:32;;;;;;;1.45;0.93;;;14.50;99.90;;;;;;5066913;28;20024;-83
2022/10/09 12:44:58;;;;;;;2.90;1.00;;;14.50;99.90;;;;;;5017599;28;20626;-84
2022/10/09 12:47:28;;;;;;;2.28;0.70;;;14.60;99.90;;;;;;5066634;28;20039;-83
2022/10/09 12:49:57;;;;;;;3.15;0.95;;;14.60;99.90;;;;;;5050155;28;20082;-83
2022/10/09 12:52:22;;;;;;;2.80;0.80;;;14.60;99.90;;;;;;5050191;28;20037;-83
2022/10/09 12:54:48;;;;;;;2.63;0.77;;;14.70;99.90;;;;;;5045882;28;20044;-83
2022/10/09 12:57:16;;;;;;;5.15;0.70;;;14.70;99.90;;;;;;5050854;28;20111;-83
2022/10/09 12:59:46;;;;;;;1.25;0.63;;;14.80;99.90;;;;;;5044034;28;20037;-83
2022/10/09 13:02:17;;;;;;;1.58;0.68;;;14.80;99.90;;;;;;5040715;28;20354;-84
2022/10/09 13:04:55;;;;;;;1.90;0.77;;;14.80;99.90;;;;;;5037610;28;20036;-83
2022/10/09 13:07:23;;;;;;;1.73;0.80;;;14.80;99.90;;;;;;5051869;28;20032;-83
2022/10/09 13:09:58;;;;;;;2.92;1.83;;;14.80;99.90;;;;;;5048883;28;20639;-84
2022/10/09 13:12:26;;;;;;;1.25;0.60;;;14.80;98.60;;;;;;5030968;28;20540;-84